Time;durP1;ratioP1;P1;durP2;ratioP2;P2;SDS_P1;SDS_P2;PMS_P1;PMS_P2;Temp;Humidity;BMP_temperature;BMP_pressure;BME280_temperature;BME280_humidity;BME280_pressure;Samples;Min_cycle;Max_cycle;Signal;HPM_P1;HPM_P2
2024/03/07 00:02:38;;;;;;;;;;;;;;;20.98;47.70;101974.17;2361691;75;50197;-80
2024/03/07 00:05:39;;;;;;;;;;;;;;;20.98;47.70;101966.61;2353641;75;50223;-80
2024/03/07 00:08:41;;;;;;;;;;;;;;;20.98;47.71;101970.13;2353713;75;50370;-80
2024/03/07 00:11:43;;;;;;;;;;;;;;;20.98;47.80;101970.64;2353560;75;51235;-80
2024/03/07 00:14:44;;;;;;;;;;;;;;;20.98;47.80;101978.20;2375129;74;50147;-79
2024/03/07 00:17:46;;;;;;;;;;;;;;;20.97;47.83;101977.88;2353541;75;50446;-80
2024/03/07 00:20:47;;;;;;;;;;;;;;;20.98;47.87;101974.68;2353225;75;49871;-79
2024/03/07 00:23:49;;;;;;;;;;;;;;;20.98;47.92;101971.48;2374855;74;51423;-80
2024/03/07 00:26:51;;;;;;;;;;;;;;;20.98;47.82;101976.02;2374979;74;49532;-80
2024/03/07 00:29:56;;;;;;;;;;;;;;;20.98;47.85;101974.17;2353739;75;51502;-80
2024/03/07 00:32:58;;;;;;;;;;;;;;;20.97;47.82;101973.84;2353839;75;51410;-80
2024/03/07 00:36:00;;;;;;;;;;;;;;;20.98;47.80;101978.72;2375305;74;49628;-81
2024/03/07 00:39:02;;;;;;;;;;;;;;;20.97;47.85;101975.19;2375187;74;49692;-81
2024/03/07 00:42:03;;;;;;;;;;;;;;;20.96;47.81;101977.55;2353677;75;50754;-80
2024/03/07 00:45:06;;;;;;;;;;;;;;;20.96;47.83;101976.21;2375042;74;50778;-80
2024/03/07 00:48:08;;;;;;;;;;;;;;;20.94;47.81;101974.19;2375410;74;50794;-80
2024/03/07 00:51:09;;;;;;;;;;;;;;;20.96;47.72;101978.03;2375413;74;51455;-81
2024/03/07 00:54:12;;;;;;;;;;;;;;;20.95;47.72;101979.05;2353734;75;50205;-81
2024/03/07 00:57:14;;;;;;;;;;;;;;;20.95;47.62;101966.95;2353539;75;51547;-81
2024/03/07 01:00:20;;;;;;;;;;;;;;;20.94;47.68;101966.11;2353517;75;50676;-81
2024/03/07 01:03:19;;;;;;;;;;;;;;;20.95;47.60;101961.56;2353788;74;23090;-81
2024/03/07 01:06:21;;;;;;;;;;;;;;;20.94;47.61;101962.08;2346209;76;51598;-80
2024/03/07 01:09:23;;;;;;;;;;;;;;;20.94;47.64;101966.11;2346371;76;50729;-81
2024/03/07 01:12:30;;;;;;;;;;;;;;;20.96;47.70;101961.89;2346249;75;50810;-80
2024/03/07 01:15:31;;;;;;;;;;;;;;;20.96;47.68;101962.75;2345550;76;22964;-81
2024/03/07 01:18:36;;;;;;;;;;;;;;;20.95;47.68;101959.70;2313500;76;51774;-80
2024/03/07 01:21:37;;;;;;;;;;;;;;;20.96;47.70;101955.16;2345650;76;50653;-81
2024/03/07 01:24:39;;;;;;;;;;;;;;;20.95;47.66;101958.87;2313433;76;50648;-80
2024/03/07 01:27:41;;;;;;;;;;;;;;;20.96;47.70;101958.72;2313207;76;49645;-80
2024/03/07 01:30:42;;;;;;;;;;;;;;;20.95;47.66;101958.36;2345514;76;50787;-80
2024/03/07 01:33:44;;;;;;;;;;;;;;;20.96;47.63;101960.55;2287927;76;51634;-81
2024/03/07 01:36:46;;;;;;;;;;;;;;;20.95;47.59;101952.98;2345572;75;52364;-81
2024/03/07 01:39:47;;;;;;;;;;;;;;;20.96;47.55;101960.06;2313107;76;52174;-80
2024/03/07 01:42:50;;;;;;;;;;;;;;;20.95;47.56;101957.02;2313194;76;52249;-81
2024/03/07 01:45:52;;;;;;;;;;;;;;;20.95;47.53;101958.36;2345174;75;50822;-80
2024/03/07 01:48:54;;;;;;;;;;;;;;;20.95;47.50;101965.60;2345447;76;50851;-80
2024/03/07 01:51:56;;;;;;;;;;;;;;;20.96;47.62;101968.62;2345227;74;50620;-81
2024/03/07 01:54:58;;;;;;;;;;;;;;;20.94;47.72;101963.42;2345132;76;50820;-80
2024/03/07 01:58:00;;;;;;;;;;;;;;;20.94;47.73;101962.08;2345559;75;50721;-81
2024/03/07 02:01:01;;;;;;;;;;;;;;;20.95;47.71;101970.47;2345618;75;51240;-79
2024/03/07 02:04:03;;;;;;;;;;;;;;;20.94;47.68;101964.77;2346407;74;52010;-80
2024/03/07 02:07:04;;;;;;;;;;;;;;;20.94;47.77;101966.11;2374144;74;51428;-80
2024/03/07 02:10:06;;;;;;;;;;;;;;;20.94;47.72;101956.70;2352676;75;50701;-80
2024/03/07 02:13:08;;;;;;;;;;;;;;;20.93;47.66;101952.30;2374195;74;50478;-80
2024/03/07 02:16:09;;;;;;;;;;;;;;;20.94;47.69;101954.00;2373938;74;50053;-80
2024/03/07 02:19:12;;;;;;;;;;;;;;;20.94;47.69;101956.70;2352215;75;50653;-81
2024/03/07 02:22:14;;;;;;;;;;;;;;;20.94;47.66;101954.00;2352500;75;50433;-80
2024/03/07 02:25:15;;;;;;;;;;;;;;;20.93;47.61;101945.58;2352701;75;51510;-81
2024/03/07 02:28:17;;;;;;;;;;;;;;;20.92;47.57;101942.56;2374864;74;49561;-80
2024/03/07 02:31:18;;;;;;;;;;;;;;;20.92;47.57;101945.25;2353443;75;50423;-80
2024/03/07 02:34:20;;;;;;;;;;;;;;;20.94;47.51;101942.41;2352710;75;51500;-80
2024/03/07 02:37:22;;;;;;;;;;;;;;;20.92;47.50;101939.87;2352485;75;50394;-80
2024/03/07 02:40:23;;;;;;;;;;;;;;;20.92;47.52;101934.48;2374198;74;49419;-79
2024/03/07 02:43:25;;;;;;;;;;;;;;;20.92;47.51;101928.27;2352563;75;50690;-79
2024/03/07 02:46:26;;;;;;;;;;;;;;;20.93;47.50;101931.29;2352679;75;51455;-79
2024/03/07 02:49:28;;;;;;;;;;;;;;;20.92;47.48;101928.27;2353327;75;51284;-79
2024/03/07 02:52:29;;;;;;;;;;;;;;;20.94;47.50;101930.30;2375234;74;51049;-80
2024/03/07 02:55:34;;;;;;;;;;;;;;;20.93;47.54;101932.13;2352977;75;51680;-80
2024/03/07 02:58:36;;;;;;;;;;;;;;;20.93;47.55;101930.78;2353152;75;50748;-80
2024/03/07 03:01:37;;;;;;;;;;;;;;;20.94;47.54;101931.13;2353933;75;50579;-79
2024/03/07 03:04:39;;;;;;;;;;;;;;;20.94;47.53;101929.78;2373622;74;50203;-79
2024/03/07 03:07:41;;;;;;;;;;;;;;;20.94;47.51;101927.61;2343267;76;51456;-79
2024/03/07 03:10:44;;;;;;;;;;;;;;;20.94;47.46;101930.30;2343290;76;50749;-80
2024/03/07 03:13:46;;;;;;;;;;;;;;;20.94;47.39;101928.44;2360590;74;51036;-80
2024/03/07 03:16:48;;;;;;;;;;;;;;;20.94;47.39;101933.83;2359857;75;49613;-81
2024/03/07 03:19:51;;;;;;;;;;;;;;;20.94;47.36;101930.30;2343258;76;50419;-80
2024/03/07 03:22:53;;;;;;;;;;;;;;;20.93;47.40;101933.47;2343512;76;51483;-81
2024/03/07 03:25:55;;;;;;;;;;;;;;;20.94;47.37;101940.55;2343061;76;51476;-81
2024/03/07 03:28:56;;;;;;;;;;;;;;;20.93;47.36;101938.02;2361953;74;50073;-81
2024/03/07 03:31:58;;;;;;;;;;;;;;;20.94;47.40;101936.52;2344569;76;50677;-81
2024/03/07 03:34:59;;;;;;;;;;;;;;;20.94;47.45;101945.09;2344706;76;51470;-81
2024/03/07 03:38:01;;;;;;;;;;;;;;;20.94;47.47;101947.78;2344990;76;51440;-80
2024/03/07 03:41:04;;;;;;;;;;;;;;;20.93;47.51;101950.95;2361979;74;50085;-79
2024/03/07 03:44:06;;;;;;;;;;;;;;;20.94;47.57;101950.48;2360474;74;51569;-79
2024/03/07 03:47:07;;;;;;;;;;;;;;;20.94;47.54;101951.31;2343968;76;50409;-81
2024/03/07 03:50:10;;;;;;;;;;;;;;;20.92;47.57;101953.32;2344207;76;50640;-81
2024/03/07 03:53:11;;;;;;;;;;;;;;;20.94;47.59;101953.17;2333186;75;50993;-81
2024/03/07 03:56:13;;;;;;;;;;;;;;;20.93;47.55;101952.81;2343988;76;50742;-81
2024/03/07 03:59:14;;;;;;;;;;;;;;;20.93;47.50;101960.88;2344211;76;51464;-81
2024/03/07 04:02:20;;;;;;;;;;;;;;;20.92;47.43;101960.05;2343849;75;51823;-81
2024/03/07 04:05:20;;;;;;;;;;;;;;;20.92;47.42;101958.70;2342185;75;22424;-79
2024/03/07 04:08:21;;;;;;;;;;;;;;;20.92;47.38;101958.70;2344743;75;51534;-79
2024/03/07 04:11:23;;;;;;;;;;;;;;;20.92;47.35;101966.77;2344788;76;51379;-80
2024/03/07 04:14:24;;;;;;;;;;;;;;;20.91;47.34;101967.80;2344963;76;51531;-80
2024/03/07 04:17:26;;;;;;;;;;;;;;;20.90;47.35;101968.78;2312774;76;51498;-79
2024/03/07 04:20:28;;;;;;;;;;;;;;;20.90;47.31;101966.61;2346478;76;50408;-80
2024/03/07 04:23:29;;;;;;;;;;;;;;;20.90;47.25;101964.75;2346601;76;51299;-80
2024/03/07 04:26:31;;;;;;;;;;;;;;;20.90;47.23;101962.05;2346688;76;51549;-80
2024/03/07 04:29:36;;;;;;;;;;;;;;;20.90;47.22;101970.13;2314399;76;49842;-81
2024/03/07 04:32:38;;;;;;;;;;;;;;;20.90;47.23;101966.09;2346617;76;52489;-81
2024/03/07 04:35:39;;;;;;;;;;;;;;;20.90;47.33;101967.44;2346239;76;50675;-80
2024/03/07 04:38:45;;;;;;;;;;;;;;;20.89;47.29;101967.11;2346763;75;50804;-80
2024/03/07 04:41:44;;;;;;;;;;;;;;;20.89;47.33;101969.80;2346001;76;22562;-80
2024/03/07 04:44:46;;;;;;;;;;;;;;;20.90;47.34;101965.26;2346796;75;50748;-81
2024/03/07 04:47:47;;;;;;;;;;;;;;;20.90;47.26;101960.71;2346619;76;50766;-80
2024/03/07 04:50:49;;;;;;;;;;;;;;;20.90;47.20;101968.78;2346218;76;51932;-80
2024/03/07 04:53:50;;;;;;;;;;;;;;;20.90;47.23;101975.51;2346000;76;50435;-79
2024/03/07 04:56:52;;;;;;;;;;;;;;;20.90;47.18;101971.47;2288487;76;51144;-81
2024/03/07 04:59:55;;;;;;;;;;;;;;;20.91;47.15;101972.31;2314106;76;51460;-81
2024/03/07 05:02:56;;;;;;;;;;;;;;;20.90;47.12;101978.71;2345163;76;51563;-81
2024/03/07 05:06:00;;;;;;;;;;;;;;;20.90;47.09;101973.33;2347073;75;51447;-81
2024/03/07 05:09:05;;;;;;;;;;;;;;;20.90;47.08;101971.47;2373756;74;50940;-81
2024/03/07 05:12:06;;;;;;;;;;;;;;;20.91;47.09;101979.03;2374666;74;51637;-80
2024/03/07 05:15:10;;;;;;;;;;;;;;;20.91;47.12;101984.41;2375252;74;50695;-80
2024/03/07 05:18:12;;;;;;;;;;;;;;;20.91;47.19;101984.41;2374674;74;50734;-80
2024/03/07 05:24:37;;;;;;;;;;;;;;;20.90;47.33;101983.58;2372120;74;22585;-82
2024/03/07 05:27:36;;;;;;;;;;;;;;;20.92;47.32;101991.50;2352226;74;22483;-82
2024/03/07 05:30:38;;;;;;;;;;;;;;;20.92;47.30;101990.98;2353322;75;50413;-82
2024/03/07 05:33:40;;;;;;;;;;;;;;;20.92;47.30;101996.37;2374821;74;49425;-82
2024/03/07 05:36:46;;;;;;;;;;;;;;;20.92;47.32;101990.16;2353029;75;51504;-82
2024/03/07 05:39:49;;;;;;;;;;;;;;;20.91;47.33;101989.32;2353598;75;50738;-81
2024/03/07 05:42:50;;;;;;;;;;;;;;;20.91;47.29;101993.36;2352722;74;50679;-81
2024/03/07 05:45:52;;;;;;;;;;;;;;;20.91;47.15;101997.39;2380484;74;51162;-82
2024/03/07 05:48:56;;;;;;;;;;;;;;;20.91;47.17;102001.42;2353426;75;50309;-82
2024/03/07 05:51:57;;;;;;;;;;;;;;;20.91;47.14;102004.12;2383236;74;22435;-83
2024/03/07 05:54:59;;;;;;;;;;;;;;;20.91;47.07;102005.94;2396018;74;50740;-82
2024/03/07 05:58:00;;;;;;;;;;;;;;;20.91;47.34;102004.12;2343253;74;50750;-80
2024/03/07 06:01:02;;;;;;;;;;;;;;;20.91;47.50;102009.50;2356523;74;51497;-83
2024/03/07 06:04:11;;;;;;;;;;;;;;;20.92;47.50;102009.83;2372141;74;50793;-81
2024/03/07 06:07:12;;;;;;;;;;;;;;;20.91;47.34;102009.98;2387605;74;50671;-81
2024/03/07 06:10:16;;;;;;;;;;;;;;;20.92;47.72;102011.68;2335754;75;50983;-81
2024/03/07 06:13:17;;;;;;;;;;;;;;;20.93;48.35;102015.53;2322429;74;22430;-82
2024/03/07 06:16:20;;;;;;;;;;;;;;;20.95;48.45;102017.56;2398201;74;50184;-82
2024/03/07 06:19:21;;;;;;;;;;;;;;;20.96;48.70;102014.36;2398892;74;51605;-82
2024/03/07 06:22:23;;;;;;;;;;;;;;;20.97;48.81;102020.09;2361766;74;50397;-82
2024/03/07 06:25:36;;;;;;;;;;;;;;;20.96;48.76;102027.33;2397572;74;51648;-82
2024/03/07 06:28:37;;;;;;;;;;;;;;;20.96;49.17;102027.33;2397755;74;22227;-81
2024/03/07 06:31:39;;;;;;;;;;;;;;;20.98;49.67;102025.30;2397376;74;50312;-81
2024/03/07 06:34:40;;;;;;;;;;;;;;;21.00;49.58;102027.32;2361249;74;51178;-81
2024/03/07 06:37:42;;;;;;;;;;;;;;;21.01;49.67;102028.16;2373487;74;50935;-82
2024/03/07 06:40:44;;;;;;;;;;;;;;;21.00;49.74;102024.63;2344066;76;50672;-82
2024/03/07 06:43:46;;;;;;;;;;;;;;;21.01;49.67;102021.44;2354759;73;50599;-84
2024/03/07 06:46:48;;;;;;;;;;;;;;;21.02;49.61;102032.05;2374219;73;50117;-84
2024/03/07 06:49:52;;;;;;;;;;;;;;;21.04;49.66;102050.70;2385326;74;50606;-83
2024/03/07 06:52:53;;;;;;;;;;;;;;;21.04;49.54;102048.00;2385638;74;22312;-83
2024/03/07 06:55:55;;;;;;;;;;;;;;;21.05;49.48;102034.91;2385344;74;51787;-83
2024/03/07 06:58:58;;;;;;;;;;;;;;;21.05;49.32;102036.25;2347130;74;50184;-84
2024/03/07 07:01:59;;;;;;;;;;;;;;;21.04;48.89;102060.98;2341670;75;51573;-82
2024/03/07 07:05:01;;;;;;;;;;;;;;;21.03;48.64;102047.17;2357412;75;51510;-83
2024/03/07 07:08:03;;;;;;;;;;;;;;;21.02;48.57;102044.16;2323325;74;51479;-84
2024/03/07 07:11:04;;;;;;;;;;;;;;;21.03;48.49;102044.48;2276783;77;50667;-85
2024/03/07 07:14:06;;;;;;;;;;;;;;;21.02;48.50;102046.84;2307695;77;51312;-83
2024/03/07 07:17:07;;;;;;;;;;;;;;;21.02;48.31;102047.36;2307679;77;51495;-84
2024/03/07 07:20:14;;;;;;;;;;;;;;;21.01;48.06;102049.17;2307816;77;52392;-84
2024/03/07 07:23:15;;;;;;;;;;;;;;;21.02;47.84;102052.73;2278035;77;22360;-83
2024/03/07 07:26:17;;;;;;;;;;;;;;;21.02;47.76;102048.19;2307344;77;50321;-83
2024/03/07 07:29:18;;;;;;;;;;;;;;;21.03;47.70;102050.37;2307858;77;50646;-84
2024/03/07 07:32:20;;;;;;;;;;;;;;;21.03;47.61;102053.06;2307841;77;50636;-83
2024/03/07 07:35:22;;;;;;;;;;;;;;;21.01;47.58;102051.87;2276408;77;50949;-84
2024/03/07 07:38:23;;;;;;;;;;;;;;;21.03;47.62;102046.34;2307540;77;50740;-85
2024/03/07 07:41:25;;;;;;;;;;;;;;;21.02;47.59;102049.53;2307721;77;51517;-85
2024/03/07 07:44:26;;;;;;;;;;;;;;;21.02;47.60;102050.87;2308838;77;50049;-84
2024/03/07 07:47:28;;;;;;;;;;;;;;;21.03;47.57;102050.37;2277359;76;49520;-85
2024/03/07 07:50:30;;;;;;;;;;;;;;;21.03;47.60;102048.52;2283122;77;50431;-84
2024/03/07 07:53:32;;;;;;;;;;;;;;;21.03;47.59;102053.90;2283165;77;50237;-84
2024/03/07 07:56:33;;;;;;;;;;;;;;;21.03;47.67;102053.90;2278067;78;51665;-84
2024/03/07 07:59:36;;;;;;;;;;;;;;;21.03;47.65;102044.48;2321300;75;51554;-84
2024/03/07 08:02:38;;;;;;;;;;;;;;;21.03;47.65;102050.37;2283638;77;50739;-84
2024/03/07 08:05:39;;;;;;;;;;;;;;;21.03;47.69;102053.06;2278170;77;51445;-82
2024/03/07 08:08:41;;;;;;;;;;;;;;;21.05;47.73;102049.70;2272933;77;50638;-83
2024/03/07 08:11:43;;;;;;;;;;;;;;;21.05;47.68;102046.51;2282460;77;50086;-84
2024/03/07 08:14:44;;;;;;;;;;;;;;;21.06;47.62;102046.83;2314099;77;50385;-85
2024/03/07 08:17:46;;;;;;;;;;;;;;;21.06;47.67;102052.22;2313431;77;50712;-84
2024/03/07 08:20:48;;;;;;;;;;;;;;;21.07;47.68;102044.50;2313752;77;51483;-84
2024/03/07 08:23:49;;;;;;;;;;;;;;;21.08;47.70;102051.55;2313618;77;50124;-86
2024/03/07 08:26:51;;;;;;;;;;;;;;;21.09;47.70;102049.70;2325406;75;50755;-84
2024/03/07 08:29:53;;;;;;;;;;;;;;;21.10;47.66;102052.23;2329754;76;50717;-83
2024/03/07 08:32:55;;;;;;;;;;;;;;;21.09;47.68;102051.91;2353126;75;51910;-85
2024/03/07 08:35:56;;;;;;;;;;;;;;;21.09;47.61;102049.22;2329197;76;51562;-82
2024/03/07 08:38:58;;;;;;;;;;;;;;;21.10;47.55;102057.62;2328767;76;52111;-81
2024/03/07 08:42:00;;;;;;;;;;;;;;;21.14;47.30;102055.94;2351830;75;50934;-81
2024/03/07 08:45:05;;;;;;;;;;;;;;;21.15;47.16;102058.98;2328685;76;51898;-82
2024/03/07 08:48:09;;;;;;;;;;;;;;;21.15;47.11;102057.13;2319589;75;51194;-80
2024/03/07 08:51:11;;;;;;;;;;;;;;;21.17;47.05;102062.33;2328590;76;52227;-79
2024/03/07 08:54:13;;;;;;;;;;;;;;;21.18;46.94;102059.99;2319324;75;51022;-82
2024/03/07 08:57:16;;;;;;;;;;;;;;;21.20;46.87;102062.02;2299049;76;50895;-81
2024/03/07 09:00:24;;;;;;;;;;;;;;;21.21;46.84;102056.96;2328991;76;22218;-81
2024/03/07 09:03:25;;;;;;;;;;;;;;;21.23;46.91;102062.52;2350983;75;51387;-80
2024/03/07 09:06:27;;;;;;;;;;;;;;;21.24;46.84;102055.28;2356143;75;51414;-82
2024/03/07 09:09:29;;;;;;;;;;;;;;;21.27;46.78;102058.98;2294852;76;50656;-83
2024/03/07 09:12:30;;;;;;;;;;;;;;;21.28;46.88;102055.30;2301381;76;52467;-85
2024/03/07 09:15:33;;;;;;;;;;;;;;;21.29;46.88;102051.58;2304251;75;51548;-81
2024/03/07 09:18:34;;;;;;;;;;;;;;;21.32;47.01;102063.36;2303080;76;51057;-80
2024/03/07 09:21:36;;;;;;;;;;;;;;;21.34;46.93;102046.53;2324683;76;51281;-80
2024/03/07 09:24:38;;;;;;;;;;;;;;;21.37;46.81;102051.58;2296385;76;51271;-82
2024/03/07 09:27:44;;;;;;;;;;;;;;;21.39;46.82;102047.42;2306797;75;51578;-82
2024/03/07 09:30:44;;;;;;;;;;;;;;;21.39;46.72;102049.60;2317475;75;22421;-81
2024/03/07 09:33:45;;;;;;;;;;;;;;;21.42;46.68;102037.66;2322493;75;50989;-81
2024/03/07 09:36:48;;;;;;;;;;;;;;;21.43;46.72;102040.19;2331510;75;50118;-82
2024/03/07 09:39:50;;;;;;;;;;;;;;;21.43;46.83;102038.84;2311690;75;51648;-82
2024/03/07 09:42:56;;;;;;;;;;;;;;;21.44;46.80;102036.48;2315782;75;51316;-80
2024/03/07 09:45:57;;;;;;;;;;;;;;;21.47;46.67;102043.37;2342258;75;22414;-82
2024/03/07 09:48:59;;;;;;;;;;;;;;;21.48;46.71;102041.88;2313946;75;51466;-83
2024/03/07 09:52:00;;;;;;;;;;;;;;;21.51;46.68;102048.27;2326929;75;51514;-84
2024/03/07 09:55:02;;;;;;;;;;;;;;;21.51;46.63;102036.66;2319305;75;50607;-82
2024/03/07 09:58:06;;;;;;;;;;;;;;;21.55;46.51;102042.53;2351074;75;50821;-81
2024/03/07 10:01:09;;;;;;;;;;;;;;;21.56;46.60;102036.99;2322602;74;22524;-80
2024/03/07 10:04:12;;;;;;;;;;;;;;;21.58;46.50;102039.02;2347905;74;21899;-79
2024/03/07 10:07:13;;;;;;;;;;;;;;;21.59;46.53;102030.42;2318929;75;50662;-80
2024/03/07 10:10:16;;;;;;;;;;;;;;;21.60;46.49;102026.20;2336313;75;50731;-82
2024/03/07 10:13:18;;;;;;;;;;;;;;;21.61;46.48;102021.67;2293014;75;51537;-82
2024/03/07 10:16:19;;;;;;;;;;;;;;;21.62;46.47;102030.08;2348557;74;51560;-80
2024/03/07 10:19:21;;;;;;;;;;;;;;;21.65;46.40;102023.00;2347236;75;51571;-80
2024/03/07 10:22:23;;;;;;;;;;;;;;;21.64;46.44;102026.20;2354832;74;51810;-81
2024/03/07 10:25:26;;;;;;;;;;;;;;;21.66;46.41;102027.39;2339691;74;51001;-82
2024/03/07 10:28:33;;;;;;;;;;;;;;;21.69;46.37;102027.88;2315667;74;50968;-80
2024/03/07 10:31:31;;;;;;;;;;;;;;;21.70;46.42;102027.38;2320158;74;22393;-80
2024/03/07 10:34:36;;;;;;;;;;;;;;;21.70;46.42;102018.78;2341842;74;50203;-82
2024/03/07 10:37:37;;;;;;;;;;;;;;;21.70;46.45;102019.30;2314545;74;50139;-80
2024/03/07 10:40:40;;;;;;;;;;;;;;;21.72;46.40;102015.92;2353237;74;51502;-81
2024/03/07 10:43:42;;;;;;;;;;;;;;;21.72;46.33;102003.29;2345749;74;50804;-81
2024/03/07 10:46:44;;;;;;;;;;;;;;;21.74;46.37;102013.40;2368635;74;51400;-82
2024/03/07 10:49:54;;;;;;;;;;;;;;;21.75;46.29;101995.38;2314769;76;50971;-82
2024/03/07 10:52:57;;;;;;;;;;;;;;;21.78;46.17;101997.72;2341989;74;51610;-83
2024/03/07 10:56:19;;;;;;;;;;;;;;;21.78;46.24;101998.23;2348213;74;53044;-82
2024/03/07 10:59:21;;;;;;;;;;;;;;;21.82;46.17;101985.59;2348342;74;50760;-81
2024/03/07 11:02:24;;;;;;;;;;;;;;;21.82;46.14;101990.98;2304015;76;49325;-81
2024/03/07 11:05:29;;;;;;;;;;;;;;;21.82;46.20;101995.03;2331477;75;50356;-82
2024/03/07 11:08:29;;;;;;;;;;;;;;;21.82;46.21;102001.77;2335048;76;22462;-82
2024/03/07 11:11:31;;;;;;;;;;;;;;;21.85;46.21;101993.84;2344156;75;50416;-82
2024/03/07 11:14:33;;;;;;;;;;;;;;;21.86;46.20;102000.42;2309830;76;49628;-81
2024/03/07 11:17:36;;;;;;;;;;;;;;;21.86;46.15;101992.81;2344110;76;51478;-82
2024/03/07 11:20:38;;;;;;;;;;;;;;;21.86;46.12;101992.34;2309851;76;49721;-81
2024/03/07 11:23:41;;;;;;;;;;;;;;;21.88;46.08;101995.67;2344641;75;50734;-81
2024/03/07 11:26:42;;;;;;;;;;;;;;;21.89;46.04;101981.20;2285965;76;52616;-81
2024/03/07 11:29:46;;;;;;;;;;;;;;;21.90;46.05;101982.87;2345100;75;51515;-82
2024/03/07 11:32:50;;;;;;;;;;;;;;;21.92;46.00;101976.81;2344721;76;50468;-81
2024/03/07 11:35:51;;;;;;;;;;;;;;;21.92;45.90;101976.81;2344860;75;22364;-83
2024/03/07 11:38:53;;;;;;;;;;;;;;;21.93;46.00;101971.74;2310022;76;52466;-83
2024/03/07 11:41:55;;;;;;;;;;;;;;;21.93;45.91;101962.83;2344248;76;51588;-82
2024/03/07 11:44:56;;;;;;;;;;;;;;;21.94;45.90;101963.17;2344043;76;50762;-82
2024/03/07 11:48:06;;;;;;;;;;;;;;;21.95;45.89;101958.11;2344412;75;50727;-82
2024/03/07 11:51:04;;;;;;;;;;;;;;;21.96;45.88;101958.43;2352530;74;22427;-82
2024/03/07 11:54:06;;;;;;;;;;;;;;;21.98;45.90;101959.62;2371908;75;51976;-81
2024/03/07 11:57:12;;;;;;;;;;;;;;;21.98;45.83;101955.06;2377267;75;50793;-81
2024/03/07 12:00:11;;;;;;;;;;;;;;;22.01;45.88;101957.91;2377544;75;23177;-82
2024/03/07 12:03:21;;;;;;;;;;;;;;;22.03;45.80;101957.23;2371165;75;51042;-81
2024/03/07 12:06:24;;;;;;;;;;;;;;;22.03;45.86;101957.23;2371638;75;49653;-81
2024/03/07 12:09:25;;;;;;;;;;;;;;;22.03;45.84;101941.91;2377488;75;51554;-82
2024/03/07 12:12:30;;;;;;;;;;;;;;;22.06;45.80;101940.72;2377432;75;50448;-81
2024/03/07 12:15:33;;;;;;;;;;;;;;;22.07;45.76;101941.06;2371271;75;50980;-82
2024/03/07 12:18:35;;;;;;;;;;;;;;;22.04;45.85;101923.88;2377917;75;51373;-84
2024/03/07 12:21:38;;;;;;;;;;;;;;;22.04;45.76;101928.78;2377559;75;50825;-83
2024/03/07 12:24:43;;;;;;;;;;;;;;;22.04;45.79;101924.73;2377775;75;51674;-82
2024/03/07 12:27:44;;;;;;;;;;;;;;;22.06;45.66;101919.15;2344733;75;51173;-82
2024/03/07 12:30:49;;;;;;;;;;;;;;;22.06;45.75;101921.84;2377627;75;50770;-83
2024/03/07 12:33:51;;;;;;;;;;;;;;;22.06;45.49;101914.59;2377767;75;51565;-83
2024/03/07 12:36:56;;;;;;;;;;;;;;;22.06;45.34;101911.89;2378089;75;51863;-83
2024/03/07 12:40:05;;;;;;;;;;;;;;;22.06;45.49;101917.28;2377960;75;23138;-82
2024/03/07 12:43:16;;;;;;;;;;;;;;;22.08;45.32;101913.08;2377860;75;22417;-81
2024/03/07 12:46:18;;;;;;;;;;;;;;;22.08;45.30;101905.00;2377263;75;51536;-83
2024/03/07 12:49:19;;;;;;;;;;;;;;;22.08;45.43;101907.17;2377502;75;50755;-82
2024/03/07 12:52:21;;;;;;;;;;;;;;;22.08;45.50;101903.13;2371583;75;51530;-83
2024/03/07 12:55:23;;;;;;;;;;;;;;;22.09;45.25;101905.31;2377491;75;51488;-83
2024/03/07 12:58:29;;;;;;;;;;;;;;;22.08;45.18;101905.83;2377881;75;51414;-83
2024/03/07 13:01:33;;;;;;;;;;;;;;;22.09;45.21;101899.92;2372375;75;24625;-83
2024/03/07 13:04:34;;;;;;;;;;;;;;;22.09;45.17;101891.84;2378419;75;22214;-83
2024/03/07 13:07:37;;;;;;;;;;;;;;;22.08;45.08;101890.17;2372319;75;50639;-83
2024/03/07 13:10:39;;;;;;;;;;;;;;;22.09;44.83;101898.09;2378165;75;52207;-82
2024/03/07 13:13:41;;;;;;;;;;;;;;;22.09;44.66;101886.45;2371434;75;50680;-82
2024/03/07 13:16:43;;;;;;;;;;;;;;;22.09;44.93;101882.41;2371340;74;50992;-83
2024/03/07 13:19:48;;;;;;;;;;;;;;;22.09;44.77;101884.61;2377472;75;50101;-82
2024/03/07 13:22:47;;;;;;;;;;;;;;;22.10;44.70;101885.45;2377490;75;22485;-82
2024/03/07 13:25:49;;;;;;;;;;;;;;;22.10;44.79;101891.67;2377260;75;51607;-81
2024/03/07 13:28:51;;;;;;;;;;;;;;;22.10;44.74;101879.55;2371460;75;50109;-83
2024/03/07 13:31:56;;;;;;;;;;;;;;;22.11;44.71;101879.03;2377964;75;50108;-82
2024/03/07 13:34:59;;;;;;;;;;;;;;;22.10;44.70;101881.41;2378514;75;22429;-82
2024/03/07 13:37:59;;;;;;;;;;;;;;;22.11;44.68;101884.42;2378101;75;22791;-83
2024/03/07 13:41:03;;;;;;;;;;;;;;;22.11;44.71;101879.03;2371910;75;49495;-82
2024/03/07 13:44:05;;;;;;;;;;;;;;;22.12;44.58;101875.34;2372280;75;22407;-83
2024/03/07 13:47:07;;;;;;;;;;;;;;;22.12;44.66;101878.03;2378091;75;50553;-83
2024/03/07 13:50:11;;;;;;;;;;;;;;;22.10;44.61;101878.20;2377842;75;51407;-83
2024/03/07 13:53:32;;;;;;;;;;;;;;;22.11;44.59;101868.25;2371628;75;22435;-83
2024/03/07 13:56:36;;;;;;;;;;;;;;;22.10;44.82;101863.89;2376726;74;22508;-83
2024/03/07 13:59:45;;;;;;;;;;;;;;;22.10;44.70;101863.89;2368766;73;50808;-83
2024/03/07 14:02:51;;;;;;;;;;;;;;;22.08;44.73;101855.97;2343641;76;51387;-82
2024/03/07 14:05:56;;;;;;;;;;;;;;;22.07;44.66;101864.24;2307738;76;51073;-82
2024/03/07 14:09:00;;;;;;;;;;;;;;;22.07;44.70;101861.03;2344001;76;50950;-83
2024/03/07 14:12:20;;;;;;;;;;;;;;;22.05;44.89;101863.06;2321994;76;51558;-82
2024/03/07 14:15:35;;;;;;;;;;;;;;;22.06;44.89;101861.20;2344264;76;51027;-86
2024/03/07 14:18:55;;;;;;;;;;;;;;;22.05;44.97;101859.53;2308651;76;50150;-86
2024/03/07 14:22:04;;;;;;;;;;;;;;;22.03;45.09;101854.82;2344874;76;51732;-85
2024/03/07 14:25:16;;;;;;;;;;;;;;;22.02;45.10;101857.20;2345556;74;22023;-86
2024/03/07 14:28:14;;;;;;;;;;;;;;;22.04;45.01;101864.57;2347269;75;22182;-87
2024/03/07 14:31:16;;;;;;;;;;;;;;;22.03;44.96;101858.86;2314742;73;51743;-88
2024/03/07 14:34:20;;;;;;;;;;;;;;;22.01;44.97;101852.29;2349034;71;50639;-89
2024/03/07 14:37:23;;;;;;;;;;;;;;;22.01;44.91;101848.76;2348601;74;51154;-86
2024/03/07 14:40:26;;;;;;;;;;;;;;;22.01;44.84;101852.80;2314871;73;50781;-87
2024/03/07 14:43:28;;;;;;;;;;;;;;;21.99;44.77;101844.05;2313984;76;50150;-86
2024/03/07 14:46:29;;;;;;;;;;;;;;;21.98;45.00;101843.22;2345699;76;52098;-86
2024/03/07 14:49:31;;;;;;;;;;;;;;;21.97;44.91;101841.55;2344106;76;51574;-86
2024/03/07 14:52:34;;;;;;;;;;;;;;;21.95;44.92;101833.63;2347520;74;51284;-84
2024/03/07 14:55:35;;;;;;;;;;;;;;;21.95;44.92;101841.71;2313628;76;49915;-88
2024/03/07 14:58:38;;;;;;;;;;;;;;;21.94;44.98;101837.35;2347967;74;50256;-85
2024/03/07 15:01:39;;;;;;;;;;;;;;;21.93;44.85;101838.34;2348144;76;50812;-86
2024/03/07 15:04:41;;;;;;;;;;;;;;;21.91;44.92;101825.58;2344395;76;51489;-86
2024/03/07 15:07:45;;;;;;;;;;;;;;;21.91;45.12;101839.06;2309867;76;50978;-86
2024/03/07 15:10:48;;;;;;;;;;;;;;;21.90;45.18;101831.97;2344274;75;22282;-86
2024/03/07 15:13:50;;;;;;;;;;;;;;;21.88;45.13;101827.26;2344037;76;50356;-86
2024/03/07 15:16:51;;;;;;;;;;;;;;;21.89;45.23;101838.39;2344092;76;51988;-86
2024/03/07 15:19:53;;;;;;;;;;;;;;;21.88;45.23;101825.91;2309879;76;51073;-86
2024/03/07 15:22:55;;;;;;;;;;;;;;;21.87;45.23;101830.15;2344677;76;50419;-87
2024/03/07 15:25:56;;;;;;;;;;;;;;;21.86;45.34;101825.27;2344754;76;52346;-86
2024/03/07 15:29:00;;;;;;;;;;;;;;;21.85;45.26;101825.44;2344675;75;52123;-86
2024/03/07 15:32:02;;;;;;;;;;;;;;;21.85;45.18;101824.09;2345124;76;22045;-86
2024/03/07 15:35:09;;;;;;;;;;;;;;;21.84;45.33;101817.03;2345347;75;50844;-85
2024/03/07 15:38:08;;;;;;;;;;;;;;;21.82;45.29;101821.23;2311292;76;22401;-86
2024/03/07 15:41:11;;;;;;;;;;;;;;;21.82;45.19;101808.28;2345301;75;51265;-85